Terminal Aerodrome Forecast
Issued by NWS

Home | Current Version | Previous Version | Text Only | Print | Product List | Glossary On
Versions: 1 2 3 4 5 6 7 8 9 10 11 12 13 14 15 16 17 18 19 20 21 22 23 24 25 26 27 28 29
000
FTUS44 KFWD 240200 AAC
TAFDAL
TAF AMD
KDAL 240211Z 2402/2424 09007KT P6SM SCT060 OVC250
      TEMPO 2402/2403 11013G23KT
     FM241800 05006KT P6SM SCT060=

USA.gov is the U.S. government's official web portal to all federal, state and local government web resources and services.